sensor_id;sensor_type;location;lat;lon;timestamp;P1;durP1;ratioP1;P2;durP2;ratioP2
4309;SDS011;2168;53.576;9.980;2023-04-24T00:01:09;0.60;;;0.60;;
4309;SDS011;2168;53.576;9.980;2023-04-24T00:03:48;0.60;;;0.60;;
4309;SDS011;2168;53.576;9.980;2023-04-24T00:06:13;0.50;;;0.50;;
4309;SDS011;2168;53.576;9.980;2023-04-24T00:08:38;0.60;;;0.60;;
4309;SDS011;2168;53.576;9.980;2023-04-24T00:11:03;0.40;;;0.40;;
4309;SDS011;2168;53.576;9.980;2023-04-24T00:13:29;0.60;;;0.60;;
4309;SDS011;2168;53.576;9.980;2023-04-24T00:15:55;0.50;;;0.50;;
4309;SDS011;2168;53.576;9.980;2023-04-24T00:18:20;0.60;;;0.60;;
4309;SDS011;2168;53.576;9.980;2023-04-24T00:20:45;0.60;;;0.60;;
4309;SDS011;2168;53.576;9.980;2023-04-24T00:23:11;0.60;;;0.60;;
4309;SDS011;2168;53.576;9.980;2023-04-24T00:25:36;0.60;;;0.60;;
4309;SDS011;2168;53.576;9.980;2023-04-24T00:28:02;0.57;;;0.57;;
4309;SDS011;2168;53.576;9.980;2023-04-24T00:30:27;0.60;;;0.60;;
4309;SDS011;2168;53.576;9.980;2023-04-24T00:32:52;0.60;;;0.60;;
4309;SDS011;2168;53.576;9.980;2023-04-24T00:35:17;0.60;;;0.60;;
4309;SDS011;2168;53.576;9.980;2023-04-24T00:37:44;0.60;;;0.60;;
4309;SDS011;2168;53.576;9.980;2023-04-24T00:40:10;0.60;;;0.60;;
4309;SDS011;2168;53.576;9.980;2023-04-24T00:42:35;0.60;;;0.60;;
4309;SDS011;2168;53.576;9.980;2023-04-24T00:45:01;0.70;;;0.70;;
4309;SDS011;2168;53.576;9.980;2023-04-24T00:47:28;0.60;;;0.60;;
4309;SDS011;2168;53.576;9.980;2023-04-24T00:49:53;0.50;;;0.50;;
4309;SDS011;2168;53.576;9.980;2023-04-24T00:52:18;0.60;;;0.60;;
4309;SDS011;2168;53.576;9.980;2023-04-24T00:54:44;0.60;;;0.60;;
4309;SDS011;2168;53.576;9.980;2023-04-24T00:57:10;0.60;;;0.60;;
4309;SDS011;2168;53.576;9.980;2023-04-24T00:59:35;0.50;;;0.50;;
4309;SDS011;2168;53.576;9.980;2023-04-24T01:02:01;0.60;;;0.60;;
4309;SDS011;2168;53.576;9.980;2023-04-24T01:04:26;0.60;;;0.60;;
4309;SDS011;2168;53.576;9.980;2023-04-24T01:06:52;0.60;;;0.60;;
4309;SDS011;2168;53.576;9.980;2023-04-24T01:09:17;0.60;;;0.60;;
4309;SDS011;2168;53.576;9.980;2023-04-24T01:11:43;0.60;;;0.60;;
4309;SDS011;2168;53.576;9.980;2023-04-24T01:14:08;0.67;;;0.67;;
4309;SDS011;2168;53.576;9.980;2023-04-24T01:16:34;0.50;;;0.50;;
4309;SDS011;2168;53.576;9.980;2023-04-24T01:19:00;0.70;;;0.70;;
4309;SDS011;2168;53.576;9.980;2023-04-24T01:21:26;0.60;;;0.60;;
4309;SDS011;2168;53.576;9.980;2023-04-24T01:23:55;0.70;;;0.70;;
4309;SDS011;2168;53.576;9.980;2023-04-24T01:26:20;0.60;;;0.60;;
4309;SDS011;2168;53.576;9.980;2023-04-24T01:28:46;0.60;;;0.60;;
4309;SDS011;2168;53.576;9.980;2023-04-24T01:31:11;0.60;;;0.60;;
4309;SDS011;2168;53.576;9.980;2023-04-24T01:33:36;0.60;;;0.60;;
4309;SDS011;2168;53.576;9.980;2023-04-24T01:36:02;0.53;;;0.53;;
4309;SDS011;2168;53.576;9.980;2023-04-24T01:38:27;0.50;;;0.50;;
4309;SDS011;2168;53.576;9.980;2023-04-24T01:40:52;0.60;;;0.60;;
4309;SDS011;2168;53.576;9.980;2023-04-24T01:43:18;0.50;;;0.50;;
4309;SDS011;2168;53.576;9.980;2023-04-24T01:45:43;0.50;;;0.50;;
4309;SDS011;2168;53.576;9.980;2023-04-24T01:48:08;0.50;;;0.50;;
4309;SDS011;2168;53.576;9.980;2023-04-24T01:50:33;0.50;;;0.50;;
4309;SDS011;2168;53.576;9.980;2023-04-24T01:52:58;0.50;;;0.50;;
4309;SDS011;2168;53.576;9.980;2023-04-24T01:55:24;0.40;;;0.40;;
4309;SDS011;2168;53.576;9.980;2023-04-24T01:57:49;0.40;;;0.40;;
4309;SDS011;2168;53.576;9.980;2023-04-24T02:00:15;0.40;;;0.40;;
4309;SDS011;2168;53.576;9.980;2023-04-24T02:02:40;0.40;;;0.40;;
4309;SDS011;2168;53.576;9.980;2023-04-24T02:05:06;0.50;;;0.50;;
4309;SDS011;2168;53.576;9.980;2023-04-24T02:07:31;0.40;;;0.40;;
4309;SDS011;2168;53.576;9.980;2023-04-24T02:09:57;0.40;;;0.40;;
4309;SDS011;2168;53.576;9.980;2023-04-24T02:12:22;0.40;;;0.40;;
4309;SDS011;2168;53.576;9.980;2023-04-24T02:14:48;0.40;;;0.40;;
4309;SDS011;2168;53.576;9.980;2023-04-24T02:17:13;0.40;;;0.40;;
4309;SDS011;2168;53.576;9.980;2023-04-24T02:19:40;0.40;;;0.40;;
4309;SDS011;2168;53.576;9.980;2023-04-24T02:22:05;0.40;;;0.40;;
4309;SDS011;2168;53.576;9.980;2023-04-24T02:24:30;0.40;;;0.40;;
4309;SDS011;2168;53.576;9.980;2023-04-24T02:26:56;0.40;;;0.40;;
4309;SDS011;2168;53.576;9.980;2023-04-24T02:29:21;0.40;;;0.40;;
4309;SDS011;2168;53.576;9.980;2023-04-24T02:31:46;0.50;;;0.50;;
4309;SDS011;2168;53.576;9.980;2023-04-24T02:34:11;0.47;;;0.47;;
4309;SDS011;2168;53.576;9.980;2023-04-24T02:36:36;0.40;;;0.40;;
4309;SDS011;2168;53.576;9.980;2023-04-24T02:39:02;0.40;;;0.40;;
4309;SDS011;2168;53.576;9.980;2023-04-24T02:41:28;0.40;;;0.40;;
4309;SDS011;2168;53.576;9.980;2023-04-24T02:43:56;0.40;;;0.40;;
4309;SDS011;2168;53.576;9.980;2023-04-24T02:46:22;0.40;;;0.40;;
4309;SDS011;2168;53.576;9.980;2023-04-24T02:48:47;0.50;;;0.50;;
4309;SDS011;2168;53.576;9.980;2023-04-24T02:51:12;0.40;;;0.40;;
4309;SDS011;2168;53.576;9.980;2023-04-24T02:53:37;0.40;;;0.40;;
4309;SDS011;2168;53.576;9.980;2023-04-24T02:56:02;0.40;;;0.40;;
4309;SDS011;2168;53.576;9.980;2023-04-24T02:58:28;0.40;;;0.40;;
4309;SDS011;2168;53.576;9.980;2023-04-24T03:00:53;0.50;;;0.50;;
4309;SDS011;2168;53.576;9.980;2023-04-24T03:03:19;0.40;;;0.40;;
4309;SDS011;2168;53.576;9.980;2023-04-24T03:05:45;0.40;;;0.40;;
4309;SDS011;2168;53.576;9.980;2023-04-24T03:08:10;0.40;;;0.40;;
4309;SDS011;2168;53.576;9.980;2023-04-24T03:10:35;0.40;;;0.40;;
4309;SDS011;2168;53.576;9.980;2023-04-24T03:13:01;0.40;;;0.40;;
4309;SDS011;2168;53.576;9.980;2023-04-24T03:15:26;0.50;;;0.50;;
4309;SDS011;2168;53.576;9.980;2023-04-24T03:17:51;0.33;;;0.33;;
4309;SDS011;2168;53.576;9.980;2023-04-24T03:20:17;0.33;;;0.33;;
4309;SDS011;2168;53.576;9.980;2023-04-24T03:22:42;0.37;;;0.37;;
4309;SDS011;2168;53.576;9.980;2023-04-24T03:25:07;0.40;;;0.40;;
4309;SDS011;2168;53.576;9.980;2023-04-24T03:27:34;0.40;;;0.40;;
4309;SDS011;2168;53.576;9.980;2023-04-24T03:29:59;0.40;;;0.40;;
4309;SDS011;2168;53.576;9.980;2023-04-24T03:32:25;0.40;;;0.40;;
4309;SDS011;2168;53.576;9.980;2023-04-24T03:34:50;0.40;;;0.40;;
4309;SDS011;2168;53.576;9.980;2023-04-24T03:37:16;0.40;;;0.40;;
4309;SDS011;2168;53.576;9.980;2023-04-24T03:39:41;0.30;;;0.30;;
4309;SDS011;2168;53.576;9.980;2023-04-24T03:42:07;0.40;;;0.40;;
4309;SDS011;2168;53.576;9.980;2023-04-24T03:44:33;0.40;;;0.40;;
4309;SDS011;2168;53.576;9.980;2023-04-24T03:46:58;0.40;;;0.40;;
4309;SDS011;2168;53.576;9.980;2023-04-24T03:49:23;0.30;;;0.30;;
4309;SDS011;2168;53.576;9.980;2023-04-24T03:51:48;0.30;;;0.30;;
4309;SDS011;2168;53.576;9.980;2023-04-24T03:54:14;0.40;;;0.40;;
4309;SDS011;2168;53.576;9.980;2023-04-24T03:56:39;0.30;;;0.30;;
4309;SDS011;2168;53.576;9.980;2023-04-24T03:59:04;0.40;;;0.40;;
4309;SDS011;2168;53.576;9.980;2023-04-24T04:01:29;0.30;;;0.30;;
4309;SDS011;2168;53.576;9.980;2023-04-24T04:03:55;0.40;;;0.40;;
4309;SDS011;2168;53.576;9.980;2023-04-24T04:06:20;0.40;;;0.40;;
4309;SDS011;2168;53.576;9.980;2023-04-24T04:08:46;0.40;;;0.40;;
4309;SDS011;2168;53.576;9.980;2023-04-24T04:11:11;0.40;;;0.40;;
4309;SDS011;2168;53.576;9.980;2023-04-24T04:13:36;0.33;;;0.33;;
4309;SDS011;2168;53.576;9.980;2023-04-24T04:16:02;0.40;;;0.40;;
4309;SDS011;2168;53.576;9.980;2023-04-24T04:18:27;0.33;;;0.33;;
4309;SDS011;2168;53.576;9.980;2023-04-24T04:20:52;0.40;;;0.40;;
4309;SDS011;2168;53.576;9.980;2023-04-24T04:23:17;0.40;;;0.40;;
4309;SDS011;2168;53.576;9.980;2023-04-24T04:25:42;0.40;;;0.40;;
4309;SDS011;2168;53.576;9.980;2023-04-24T04:28:08;0.47;;;0.47;;
4309;SDS011;2168;53.576;9.980;2023-04-24T04:30:33;0.40;;;0.40;;
4309;SDS011;2168;53.576;9.980;2023-04-24T04:32:58;0.30;;;0.30;;
4309;SDS011;2168;53.576;9.980;2023-04-24T04:35:24;0.30;;;0.30;;
4309;SDS011;2168;53.576;9.980;2023-04-24T04:37:49;0.40;;;0.40;;
4309;SDS011;2168;53.576;9.980;2023-04-24T04:40:16;0.30;;;0.30;;
4309;SDS011;2168;53.576;9.980;2023-04-24T04:42:41;0.30;;;0.30;;
4309;SDS011;2168;53.576;9.980;2023-04-24T04:45:07;0.40;;;0.40;;
4309;SDS011;2168;53.576;9.980;2023-04-24T04:47:36;0.40;;;0.40;;
4309;SDS011;2168;53.576;9.980;2023-04-24T04:50:01;0.40;;;0.40;;
4309;SDS011;2168;53.576;9.980;2023-04-24T04:52:27;0.40;;;0.40;;
4309;SDS011;2168;53.576;9.980;2023-04-24T04:54:53;0.40;;;0.40;;
4309;SDS011;2168;53.576;9.980;2023-04-24T04:57:18;0.50;;;0.50;;
4309;SDS011;2168;53.576;9.980;2023-04-24T04:59:43;0.40;;;0.40;;
4309;SDS011;2168;53.576;9.980;2023-04-24T05:02:08;0.40;;;0.40;;
4309;SDS011;2168;53.576;9.980;2023-04-24T05:04:34;0.40;;;0.40;;
4309;SDS011;2168;53.576;9.980;2023-04-24T05:06:59;0.40;;;0.40;;
4309;SDS011;2168;53.576;9.980;2023-04-24T05:09:24;0.40;;;0.40;;
4309;SDS011;2168;53.576;9.980;2023-04-24T05:11:52;0.40;;;0.40;;
4309;SDS011;2168;53.576;9.980;2023-04-24T05:14:17;0.40;;;0.40;;
4309;SDS011;2168;53.576;9.980;2023-04-24T05:16:44;0.40;;;0.40;;
4309;SDS011;2168;53.576;9.980;2023-04-24T05:19:09;0.30;;;0.30;;
4309;SDS011;2168;53.576;9.980;2023-04-24T05:21:35;0.40;;;0.40;;
4309;SDS011;2168;53.576;9.980;2023-04-24T05:24:00;0.33;;;0.33;;
4309;SDS011;2168;53.576;9.980;2023-04-24T05:26:26;0.40;;;0.40;;
4309;SDS011;2168;53.576;9.980;2023-04-24T05:28:51;0.30;;;0.30;;
4309;SDS011;2168;53.576;9.980;2023-04-24T05:31:16;0.30;;;0.30;;
4309;SDS011;2168;53.576;9.980;2023-04-24T05:33:42;0.30;;;0.30;;
4309;SDS011;2168;53.576;9.980;2023-04-24T05:36:07;0.30;;;0.30;;
4309;SDS011;2168;53.576;9.980;2023-04-24T05:38:33;0.40;;;0.40;;
4309;SDS011;2168;53.576;9.980;2023-04-24T05:40:58;0.40;;;0.40;;
4309;SDS011;2168;53.576;9.980;2023-04-24T05:43:23;0.30;;;0.30;;
4309;SDS011;2168;53.576;9.980;2023-04-24T05:45:48;0.40;;;0.40;;
4309;SDS011;2168;53.576;9.980;2023-04-24T05:48:13;0.40;;;0.40;;
4309;SDS011;2168;53.576;9.980;2023-04-24T05:50:39;0.30;;;0.30;;
4309;SDS011;2168;53.576;9.980;2023-04-24T05:53:04;0.40;;;0.40;;
4309;SDS011;2168;53.576;9.980;2023-04-24T05:55:31;0.30;;;0.30;;
4309;SDS011;2168;53.576;9.980;2023-04-24T05:57:57;0.40;;;0.40;;
4309;SDS011;2168;53.576;9.980;2023-04-24T06:00:23;0.30;;;0.30;;
4309;SDS011;2168;53.576;9.980;2023-04-24T06:02:48;0.30;;;0.30;;
4309;SDS011;2168;53.576;9.980;2023-04-24T06:05:13;0.30;;;0.30;;
4309;SDS011;2168;53.576;9.980;2023-04-24T06:07:39;0.40;;;0.40;;
4309;SDS011;2168;53.576;9.980;2023-04-24T06:10:05;0.30;;;0.30;;
4309;SDS011;2168;53.576;9.980;2023-04-24T06:12:30;0.30;;;0.30;;
4309;SDS011;2168;53.576;9.980;2023-04-24T06:14:56;0.40;;;0.40;;
4309;SDS011;2168;53.576;9.980;2023-04-24T06:17:21;0.40;;;0.40;;
4309;SDS011;2168;53.576;9.980;2023-04-24T06:19:46;0.40;;;0.40;;
4309;SDS011;2168;53.576;9.980;2023-04-24T06:22:11;0.40;;;0.40;;
4309;SDS011;2168;53.576;9.980;2023-04-24T06:24:37;0.27;;;0.27;;
4309;SDS011;2168;53.576;9.980;2023-04-24T06:27:02;0.30;;;0.30;;
4309;SDS011;2168;53.576;9.980;2023-04-24T06:29:27;0.30;;;0.30;;
4309;SDS011;2168;53.576;9.980;2023-04-24T06:31:52;0.30;;;0.30;;
4309;SDS011;2168;53.576;9.980;2023-04-24T06:34:18;0.40;;;0.40;;
4309;SDS011;2168;53.576;9.980;2023-04-24T06:36:43;0.30;;;0.30;;
4309;SDS011;2168;53.576;9.980;2023-04-24T06:39:08;0.30;;;0.30;;
4309;SDS011;2168;53.576;9.980;2023-04-24T06:41:33;0.33;;;0.33;;
4309;SDS011;2168;53.576;9.980;2023-04-24T06:43:59;0.30;;;0.30;;
4309;SDS011;2168;53.576;9.980;2023-04-24T06:46:24;0.40;;;0.40;;
4309;SDS011;2168;53.576;9.980;2023-04-24T06:48:51;0.33;;;0.33;;
4309;SDS011;2168;53.576;9.980;2023-04-24T06:51:16;0.30;;;0.30;;
4309;SDS011;2168;53.576;9.980;2023-04-24T06:53:43;0.47;;;0.47;;
4309;SDS011;2168;53.576;9.980;2023-04-24T06:56:08;0.40;;;0.40;;
4309;SDS011;2168;53.576;9.980;2023-04-24T06:58:33;0.40;;;0.40;;
4309;SDS011;2168;53.576;9.980;2023-04-24T07:00:58;0.40;;;0.40;;
4309;SDS011;2168;53.576;9.980;2023-04-24T07:03:23;0.30;;;0.30;;
4309;SDS011;2168;53.576;9.980;2023-04-24T07:05:48;0.30;;;0.30;;
4309;SDS011;2168;53.576;9.980;2023-04-24T07:08:14;0.40;;;0.40;;
4309;SDS011;2168;53.576;9.980;2023-04-24T07:10:42;0.30;;;0.30;;
4309;SDS011;2168;53.576;9.980;2023-04-24T07:13:07;0.30;;;0.30;;
4309;SDS011;2168;53.576;9.980;2023-04-24T07:15:33;0.40;;;0.40;;
4309;SDS011;2168;53.576;9.980;2023-04-24T07:17:58;0.40;;;0.40;;
4309;SDS011;2168;53.576;9.980;2023-04-24T07:20:24;0.30;;;0.30;;
4309;SDS011;2168;53.576;9.980;2023-04-24T07:22:49;0.40;;;0.40;;
4309;SDS011;2168;53.576;9.980;2023-04-24T07:25:14;0.40;;;0.40;;
4309;SDS011;2168;53.576;9.980;2023-04-24T07:27:40;0.40;;;0.40;;
4309;SDS011;2168;53.576;9.980;2023-04-24T07:30:05;0.40;;;0.40;;
4309;SDS011;2168;53.576;9.980;2023-04-24T07:32:31;0.40;;;0.40;;
4309;SDS011;2168;53.576;9.980;2023-04-24T07:34:56;0.40;;;0.40;;
4309;SDS011;2168;53.576;9.980;2023-04-24T07:37:22;0.30;;;0.30;;
4309;SDS011;2168;53.576;9.980;2023-04-24T07:39:47;0.40;;;0.40;;
4309;SDS011;2168;53.576;9.980;2023-04-24T07:42:12;0.40;;;0.40;;
4309;SDS011;2168;53.576;9.980;2023-04-24T07:44:38;0.40;;;0.40;;
4309;SDS011;2168;53.576;9.980;2023-04-24T07:47:03;0.40;;;0.40;;
4309;SDS011;2168;53.576;9.980;2023-04-24T07:49:28;0.40;;;0.40;;
4309;SDS011;2168;53.576;9.980;2023-04-24T07:51:53;0.30;;;0.30;;
4309;SDS011;2168;53.576;9.980;2023-04-24T07:54:19;0.40;;;0.40;;
4309;SDS011;2168;53.576;9.980;2023-04-24T07:56:44;0.30;;;0.30;;
4309;SDS011;2168;53.576;9.980;2023-04-24T07:59:10;0.40;;;0.40;;
4309;SDS011;2168;53.576;9.980;2023-04-24T08:01:35;0.40;;;0.40;;
4309;SDS011;2168;53.576;9.980;2023-04-24T08:04:00;0.30;;;0.30;;
4309;SDS011;2168;53.576;9.980;2023-04-24T08:06:25;0.40;;;0.40;;
4309;SDS011;2168;53.576;9.980;2023-04-24T08:08:55;0.40;;;0.40;;
4309;SDS011;2168;53.576;9.980;2023-04-24T08:11:20;0.40;;;0.40;;
4309;SDS011;2168;53.576;9.980;2023-04-24T08:13:45;0.50;;;0.50;;
4309;SDS011;2168;53.576;9.980;2023-04-24T08:16:10;0.40;;;0.40;;
4309;SDS011;2168;53.576;9.980;2023-04-24T08:18:35;0.40;;;0.40;;
4309;SDS011;2168;53.576;9.980;2023-04-24T08:21:01;0.40;;;0.40;;
4309;SDS011;2168;53.576;9.980;2023-04-24T08:23:26;0.30;;;0.30;;
4309;SDS011;2168;53.576;9.980;2023-04-24T08:25:51;0.50;;;0.50;;
4309;SDS011;2168;53.576;9.980;2023-04-24T08:28:17;0.50;;;0.50;;
4309;SDS011;2168;53.576;9.980;2023-04-24T08:30:45;0.50;;;0.50;;
4309;SDS011;2168;53.576;9.980;2023-04-24T08:33:10;0.40;;;0.40;;
4309;SDS011;2168;53.576;9.980;2023-04-24T08:35:35;0.40;;;0.40;;
4309;SDS011;2168;53.576;9.980;2023-04-24T08:38:01;0.40;;;0.40;;
4309;SDS011;2168;53.576;9.980;2023-04-24T08:40:27;0.40;;;0.40;;
4309;SDS011;2168;53.576;9.980;2023-04-24T08:42:54;0.43;;;0.43;;
4309;SDS011;2168;53.576;9.980;2023-04-24T08:45:20;0.40;;;0.40;;
4309;SDS011;2168;53.576;9.980;2023-04-24T08:47:45;0.40;;;0.40;;
4309;SDS011;2168;53.576;9.980;2023-04-24T08:50:11;0.40;;;0.40;;
4309;SDS011;2168;53.576;9.980;2023-04-24T08:52:37;0.30;;;0.30;;
4309;SDS011;2168;53.576;9.980;2023-04-24T08:55:03;0.40;;;0.40;;
4309;SDS011;2168;53.576;9.980;2023-04-24T08:57:28;0.43;;;0.43;;
4309;SDS011;2168;53.576;9.980;2023-04-24T08:59:54;0.40;;;0.40;;
4309;SDS011;2168;53.576;9.980;2023-04-24T09:02:19;0.40;;;0.40;;
4309;SDS011;2168;53.576;9.980;2023-04-24T09:04:45;0.40;;;0.40;;
4309;SDS011;2168;53.576;9.980;2023-04-24T09:07:11;0.40;;;0.40;;
4309;SDS011;2168;53.576;9.980;2023-04-24T09:09:37;0.40;;;0.40;;
4309;SDS011;2168;53.576;9.980;2023-04-24T09:12:03;0.40;;;0.40;;
4309;SDS011;2168;53.576;9.980;2023-04-24T09:14:28;0.40;;;0.40;;
4309;SDS011;2168;53.576;9.980;2023-04-24T09:16:56;0.30;;;0.30;;
4309;SDS011;2168;53.576;9.980;2023-04-24T09:19:21;0.40;;;0.40;;
4309;SDS011;2168;53.576;9.980;2023-04-24T09:21:47;0.50;;;0.50;;
4309;SDS011;2168;53.576;9.980;2023-04-24T09:24:19;0.50;;;0.50;;
4309;SDS011;2168;53.576;9.980;2023-04-24T09:26:47;0.40;;;0.40;;
4309;SDS011;2168;53.576;9.980;2023-04-24T09:29:16;0.40;;;0.40;;
4309;SDS011;2168;53.576;9.980;2023-04-24T09:31:41;0.30;;;0.30;;
4309;SDS011;2168;53.576;9.980;2023-04-24T09:34:07;0.37;;;0.37;;
4309;SDS011;2168;53.576;9.980;2023-04-24T09:36:35;0.30;;;0.30;;
4309;SDS011;2168;53.576;9.980;2023-04-24T09:39:08;0.40;;;0.40;;
4309;SDS011;2168;53.576;9.980;2023-04-24T09:41:35;0.40;;;0.40;;
4309;SDS011;2168;53.576;9.980;2023-04-24T09:44:12;0.40;;;0.40;;
4309;SDS011;2168;53.576;9.980;2023-04-24T09:46:38;0.30;;;0.30;;
4309;SDS011;2168;53.576;9.980;2023-04-24T09:49:10;0.30;;;0.30;;
4309;SDS011;2168;53.576;9.980;2023-04-24T09:51:36;0.40;;;0.40;;
4309;SDS011;2168;53.576;9.980;2023-04-24T09:54:02;0.40;;;0.40;;
4309;SDS011;2168;53.576;9.980;2023-04-24T09:56:28;0.40;;;0.40;;
4309;SDS011;2168;53.576;9.980;2023-04-24T09:59:03;0.40;;;0.40;;
4309;SDS011;2168;53.576;9.980;2023-04-24T10:01:30;0.40;;;0.40;;
4309;SDS011;2168;53.576;9.980;2023-04-24T10:03:55;0.30;;;0.30;;
4309;SDS011;2168;53.576;9.980;2023-04-24T10:06:20;0.40;;;0.40;;
4309;SDS011;2168;53.576;9.980;2023-04-24T10:08:45;0.40;;;0.40;;
4309;SDS011;2168;53.576;9.980;2023-04-24T10:11:11;0.40;;;0.40;;
4309;SDS011;2168;53.576;9.980;2023-04-24T10:13:36;0.40;;;0.40;;
4309;SDS011;2168;53.576;9.980;2023-04-24T10:16:02;0.33;;;0.33;;
4309;SDS011;2168;53.576;9.980;2023-04-24T10:18:28;0.40;;;0.40;;
4309;SDS011;2168;53.576;9.980;2023-04-24T10:20:54;0.43;;;0.43;;
4309;SDS011;2168;53.576;9.980;2023-04-24T10:23:19;0.40;;;0.40;;
4309;SDS011;2168;53.576;9.980;2023-04-24T10:25:45;0.40;;;0.40;;
4309;SDS011;2168;53.576;9.980;2023-04-24T10:28:10;0.40;;;0.40;;
4309;SDS011;2168;53.576;9.980;2023-04-24T10:30:35;0.40;;;0.40;;
4309;SDS011;2168;53.576;9.980;2023-04-24T10:33:01;0.50;;;0.50;;
4309;SDS011;2168;53.576;9.980;2023-04-24T10:35:27;0.50;;;0.50;;
4309;SDS011;2168;53.576;9.980;2023-04-24T10:37:59;0.50;;;0.50;;
4309;SDS011;2168;53.576;9.980;2023-04-24T10:40:27;0.50;;;0.50;;
4309;SDS011;2168;53.576;9.980;2023-04-24T10:42:53;0.40;;;0.40;;
4309;SDS011;2168;53.576;9.980;2023-04-24T10:45:19;0.50;;;0.50;;
4309;SDS011;2168;53.576;9.980;2023-04-24T10:47:53;0.40;;;0.40;;
4309;SDS011;2168;53.576;9.980;2023-04-24T10:50:18;0.40;;;0.40;;
4309;SDS011;2168;53.576;9.980;2023-04-24T10:52:44;0.40;;;0.40;;
4309;SDS011;2168;53.576;9.980;2023-04-24T10:55:09;0.40;;;0.40;;
4309;SDS011;2168;53.576;9.980;2023-04-24T10:57:34;0.40;;;0.40;;
4309;SDS011;2168;53.576;9.980;2023-04-24T11:00:10;0.40;;;0.40;;
4309;SDS011;2168;53.576;9.980;2023-04-24T11:02:38;0.30;;;0.30;;
4309;SDS011;2168;53.576;9.980;2023-04-24T11:05:03;0.30;;;0.30;;
4309;SDS011;2168;53.576;9.980;2023-04-24T11:07:29;0.50;;;0.50;;
4309;SDS011;2168;53.576;9.980;2023-04-24T11:10:00;0.50;;;0.50;;
4309;SDS011;2168;53.576;9.980;2023-04-24T11:12:26;0.50;;;0.50;;
4309;SDS011;2168;53.576;9.980;2023-04-24T11:20:00;0.50;;;0.50;;
4309;SDS011;2168;53.576;9.980;2023-04-24T11:22:25;0.40;;;0.40;;
4309;SDS011;2168;53.576;9.980;2023-04-24T11:24:53;0.50;;;0.50;;
4309;SDS011;2168;53.576;9.980;2023-04-24T11:27:19;0.50;;;0.50;;
4309;SDS011;2168;53.576;9.980;2023-04-24T11:34:59;0.53;;;0.53;;
4309;SDS011;2168;53.576;9.980;2023-04-24T11:37:26;0.60;;;0.60;;
4309;SDS011;2168;53.576;9.980;2023-04-24T11:39:56;0.60;;;0.60;;
4309;SDS011;2168;53.576;9.980;2023-04-24T11:42:22;0.60;;;0.60;;
4309;SDS011;2168;53.576;9.980;2023-04-24T11:44:54;0.60;;;0.60;;
4309;SDS011;2168;53.576;9.980;2023-04-24T11:47:27;0.50;;;0.50;;
4309;SDS011;2168;53.576;9.980;2023-04-24T11:49:52;0.50;;;0.50;;
4309;SDS011;2168;53.576;9.980;2023-04-24T11:52:17;0.50;;;0.50;;
4309;SDS011;2168;53.576;9.980;2023-04-24T11:54:49;0.60;;;0.60;;
4309;SDS011;2168;53.576;9.980;2023-04-24T11:57:15;0.57;;;0.57;;
4309;SDS011;2168;53.576;9.980;2023-04-24T11:59:40;0.60;;;0.60;;
4309;SDS011;2168;53.576;9.980;2023-04-24T12:02:05;0.50;;;0.50;;
4309;SDS011;2168;53.576;9.980;2023-04-24T12:04:38;0.57;;;0.57;;
4309;SDS011;2168;53.576;9.980;2023-04-24T12:07:03;0.50;;;0.50;;
4309;SDS011;2168;53.576;9.980;2023-04-24T12:10:03;0.50;;;0.50;;
4309;SDS011;2168;53.576;9.980;2023-04-24T12:12:23;0.60;;;0.60;;
4309;SDS011;2168;53.576;9.980;2023-04-24T12:14:52;0.60;;;0.60;;
4309;SDS011;2168;53.576;9.980;2023-04-24T12:17:23;0.60;;;0.60;;
4309;SDS011;2168;53.576;9.980;2023-04-24T12:19:48;0.60;;;0.60;;
4309;SDS011;2168;53.576;9.980;2023-04-24T12:22:15;0.60;;;0.60;;
4309;SDS011;2168;53.576;9.980;2023-04-24T12:25:02;0.57;;;0.57;;
4309;SDS011;2168;53.576;9.980;2023-04-24T12:27:29;0.60;;;0.60;;
4309;SDS011;2168;53.576;9.980;2023-04-24T12:29:55;0.60;;;0.60;;
4309;SDS011;2168;53.576;9.980;2023-04-24T12:32:21;0.70;;;0.70;;
4309;SDS011;2168;53.576;9.980;2023-04-24T12:34:46;0.60;;;0.60;;
4309;SDS011;2168;53.576;9.980;2023-04-24T12:37:11;0.60;;;0.60;;
4309;SDS011;2168;53.576;9.980;2023-04-24T12:39:37;0.50;;;0.50;;
4309;SDS011;2168;53.576;9.980;2023-04-24T12:42:02;0.57;;;0.57;;
4309;SDS011;2168;53.576;9.980;2023-04-24T12:44:34;0.50;;;0.50;;
4309;SDS011;2168;53.576;9.980;2023-04-24T12:47:00;0.60;;;0.60;;
4309;SDS011;2168;53.576;9.980;2023-04-24T12:49:25;0.50;;;0.50;;
4309;SDS011;2168;53.576;9.980;2023-04-24T12:51:50;0.47;;;0.47;;
4309;SDS011;2168;53.576;9.980;2023-04-24T12:54:16;0.50;;;0.50;;
4309;SDS011;2168;53.576;9.980;2023-04-24T12:56:41;0.60;;;0.60;;
4309;SDS011;2168;53.576;9.980;2023-04-24T12:59:06;0.50;;;0.50;;
4309;SDS011;2168;53.576;9.980;2023-04-24T13:01:31;0.50;;;0.50;;
4309;SDS011;2168;53.576;9.980;2023-04-24T13:03:57;0.60;;;0.60;;
4309;SDS011;2168;53.576;9.980;2023-04-24T13:06:22;0.50;;;0.50;;
4309;SDS011;2168;53.576;9.980;2023-04-24T13:08:47;0.50;;;0.50;;
4309;SDS011;2168;53.576;9.980;2023-04-24T13:11:13;0.40;;;0.40;;
4309;SDS011;2168;53.576;9.980;2023-04-24T13:13:38;0.40;;;0.40;;
4309;SDS011;2168;53.576;9.980;2023-04-24T13:16:04;0.50;;;0.50;;
4309;SDS011;2168;53.576;9.980;2023-04-24T13:18:29;0.40;;;0.40;;
4309;SDS011;2168;53.576;9.980;2023-04-24T13:20:55;0.50;;;0.50;;
4309;SDS011;2168;53.576;9.980;2023-04-24T13:23:20;0.50;;;0.50;;
4309;SDS011;2168;53.576;9.980;2023-04-24T13:25:45;0.50;;;0.50;;
4309;SDS011;2168;53.576;9.980;2023-04-24T13:28:10;0.50;;;0.50;;
4309;SDS011;2168;53.576;9.980;2023-04-24T13:30:35;0.40;;;0.40;;
4309;SDS011;2168;53.576;9.980;2023-04-24T13:33:00;0.50;;;0.50;;
4309;SDS011;2168;53.576;9.980;2023-04-24T13:35:26;0.50;;;0.50;;
4309;SDS011;2168;53.576;9.980;2023-04-24T13:37:51;0.50;;;0.50;;
4309;SDS011;2168;53.576;9.980;2023-04-24T13:40:16;0.40;;;0.40;;
4309;SDS011;2168;53.576;9.980;2023-04-24T13:42:41;0.50;;;0.50;;
4309;SDS011;2168;53.576;9.980;2023-04-24T13:45:06;0.50;;;0.50;;
4309;SDS011;2168;53.576;9.980;2023-04-24T13:47:32;0.50;;;0.50;;
4309;SDS011;2168;53.576;9.980;2023-04-24T13:49:57;0.50;;;0.50;;
4309;SDS011;2168;53.576;9.980;2023-04-24T13:52:22;0.50;;;0.50;;
4309;SDS011;2168;53.576;9.980;2023-04-24T13:54:47;0.40;;;0.40;;
4309;SDS011;2168;53.576;9.980;2023-04-24T13:57:13;0.30;;;0.30;;
4309;SDS011;2168;53.576;9.980;2023-04-24T13:59:39;0.40;;;0.40;;
4309;SDS011;2168;53.576;9.980;2023-04-24T14:02:04;0.40;;;0.40;;
4309;SDS011;2168;53.576;9.980;2023-04-24T14:04:30;0.40;;;0.40;;
4309;SDS011;2168;53.576;9.980;2023-04-24T14:06:55;0.50;;;0.50;;
4309;SDS011;2168;53.576;9.980;2023-04-24T14:09:20;0.40;;;0.40;;
4309;SDS011;2168;53.576;9.980;2023-04-24T14:11:45;0.47;;;0.47;;
4309;SDS011;2168;53.576;9.980;2023-04-24T14:14:11;0.50;;;0.50;;
4309;SDS011;2168;53.576;9.980;2023-04-24T14:16:36;0.37;;;0.37;;
4309;SDS011;2168;53.576;9.980;2023-04-24T14:19:01;0.50;;;0.50;;
4309;SDS011;2168;53.576;9.980;2023-04-24T14:21:26;0.40;;;0.40;;
4309;SDS011;2168;53.576;9.980;2023-04-24T14:23:52;0.40;;;0.40;;
4309;SDS011;2168;53.576;9.980;2023-04-24T14:26:17;0.40;;;0.40;;
4309;SDS011;2168;53.576;9.980;2023-04-24T14:28:42;0.50;;;0.50;;
4309;SDS011;2168;53.576;9.980;2023-04-24T14:31:07;0.40;;;0.40;;
4309;SDS011;2168;53.576;9.980;2023-04-24T14:33:33;0.50;;;0.50;;
4309;SDS011;2168;53.576;9.980;2023-04-24T14:35:58;0.40;;;0.40;;
4309;SDS011;2168;53.576;9.980;2023-04-24T14:38:23;0.40;;;0.40;;
4309;SDS011;2168;53.576;9.980;2023-04-24T14:40:49;0.40;;;0.40;;
4309;SDS011;2168;53.576;9.980;2023-04-24T14:43:14;0.60;;;0.60;;
4309;SDS011;2168;53.576;9.980;2023-04-24T14:45:39;0.50;;;0.50;;
4309;SDS011;2168;53.576;9.980;2023-04-24T14:48:06;0.93;;;0.93;;
4309;SDS011;2168;53.576;9.980;2023-04-24T14:50:32;0.60;;;0.60;;
4309;SDS011;2168;53.576;9.980;2023-04-24T14:52:58;0.70;;;0.70;;
4309;SDS011;2168;53.576;9.980;2023-04-24T14:55:24;0.60;;;0.60;;
4309;SDS011;2168;53.576;9.980;2023-04-24T14:57:49;0.80;;;0.80;;
4309;SDS011;2168;53.576;9.980;2023-04-24T15:00:14;0.70;;;0.70;;
4309;SDS011;2168;53.576;9.980;2023-04-24T15:02:41;0.70;;;0.70;;
4309;SDS011;2168;53.576;9.980;2023-04-24T15:05:09;1.00;;;1.00;;
4309;SDS011;2168;53.576;9.980;2023-04-24T15:07:34;1.10;;;1.10;;
4309;SDS011;2168;53.576;9.980;2023-04-24T15:10:00;0.90;;;0.90;;
4309;SDS011;2168;53.576;9.980;2023-04-24T15:12:26;1.00;;;1.00;;
4309;SDS011;2168;53.576;9.980;2023-04-24T15:14:51;0.80;;;0.80;;
4309;SDS011;2168;53.576;9.980;2023-04-24T15:17:16;0.77;;;0.77;;